Time;durP1;ratioP1;P1;durP2;ratioP2;P2;SDS_P1;SDS_P2;PMS_P1;PMS_P2;Temp;Humidity;BMP_temperature;BMP_pressure;BME280_temperature;BME280_humidity;BME280_pressure;Samples;Min_cycle;Max_cycle;Signal;HPM_P1;HPM_P2
2023/06/30 00:04:40;;;;;;;6.88;4.70;;;;;;;24.86;41.17;99372.06;10500337;28;20321;-68
2023/06/30 00:09:42;;;;;;;8.90;4.38;;;;;;;24.09;42.31;99423.84;10518899;28;20701;-69
2023/06/30 00:14:44;;;;;;;6.00;4.45;;;;;;;24.04;42.24;99432.91;10518686;28;20326;-68
2023/06/30 00:19:46;;;;;;;5.57;4.10;;;;;;;23.47;42.55;99409.72;10525715;28;20252;-68
2023/06/30 00:24:55;;;;;;;6.63;4.68;;;;;;;23.91;42.47;99385.16;10522182;28;20652;-68
2023/06/30 00:29:56;;;;;;;7.18;4.70;;;;;;;25.06;40.95;99403.88;10522960;28;20239;-68
2023/06/30 00:34:59;;;;;;;6.53;5.03;;;;;;;24.25;42.75;99365.25;10505503;28;20264;-68
2023/06/30 00:40:01;;;;;;;6.05;4.10;;;;;;;22.66;45.30;99387.81;10513525;28;20290;-68
2023/06/30 00:45:03;;;;;;;8.02;4.25;;;;;;;24.41;42.41;99384.25;10523899;28;20253;-65
2023/06/30 00:50:05;;;;;;;6.95;4.85;;;;;;;23.27;44.31;99397.78;10520496;28;20202;-65
2023/06/30 00:55:07;;;;;;;7.07;4.60;;;;;;;22.90;43.87;99383.38;10519219;28;20839;-66
2023/06/30 01:00:13;;;;;;;7.63;4.40;;;;;;;25.60;40.48;99338.84;10514241;28;20211;-66
2023/06/30 01:05:25;;;;;;;5.57;4.35;;;;;;;24.01;41.28;99408.88;10512446;28;20242;-65
2023/06/30 01:10:28;;;;;;;7.68;4.57;;;;;;;23.42;41.94;99366.88;10522389;28;20275;-66
2023/06/30 01:15:31;;;;;;;5.45;4.07;;;;;;;25.05;40.60;99368.56;10513467;28;20231;-68
2023/06/30 01:20:33;;;;;;;5.97;4.28;;;;;;;23.83;43.44;99352.97;10520437;28;20217;-67
2023/06/30 01:25:35;;;;;;;5.65;4.30;;;;;;;24.84;41.98;99325.03;10512351;28;20685;-67
2023/06/30 01:30:37;;;;;;;8.63;4.38;;;;;;;23.75;43.16;99373.53;10509736;28;20215;-67
2023/06/30 01:35:39;;;;;;;6.40;4.35;;;;;;;24.72;42.58;99316.44;10513180;28;20228;-68
2023/06/30 01:40:41;;;;;;;6.20;4.70;;;;;;;23.80;43.64;99359.84;10521058;28;20263;-67
2023/06/30 01:45:43;;;;;;;6.32;4.70;;;;;;;22.29;45.53;99346.13;10520725;28;20317;-67
2023/06/30 01:50:45;;;;;;;8.30;4.70;;;;;;;23.34;44.73;99274.66;10520478;28;20215;-67
2023/06/30 01:55:48;;;;;;;8.38;4.80;;;;;;;24.54;42.24;99298.81;10517687;28;20218;-66
2023/06/30 02:00:50;;;;;;;5.30;4.65;;;;;;;24.32;43.11;99343.88;10512930;28;20301;-66
2023/06/30 02:05:51;;;;;;;7.75;4.75;;;;;;;24.64;43.75;99327.97;10522368;28;20317;-67
2023/06/30 02:10:53;;;;;;;6.45;4.57;;;;;;;23.67;44.93;99351.44;10510498;28;20246;-67
2023/06/30 02:15:55;;;;;;;6.47;4.22;;;;;;;24.70;44.10;99297.56;10528925;28;20329;-67
2023/06/30 02:20:56;;;;;;;9.52;5.00;;;;;;;25.17;43.59;99295.09;10519657;28;20665;-67
2023/06/30 02:25:58;;;;;;;6.82;4.97;;;;;;;25.18;43.60;99288.47;10522039;28;20314;-67
2023/06/30 02:31:00;;;;;;;9.20;4.90;;;;;;;24.73;43.77;99324.34;10518085;28;20242;-67
2023/06/30 02:36:05;;;;;;;7.63;5.22;;;;;;;23.68;46.53;99312.13;10522424;28;20238;-67
2023/06/30 02:41:07;;;;;;;6.88;5.22;;;;;;;22.89;46.85;99342.75;10515147;28;20922;-67
2023/06/30 02:46:08;;;;;;;6.47;4.82;;;;;;;25.35;43.40;99277.03;10511075;28;20227;-68
2023/06/30 02:51:10;;;;;;;6.68;4.60;;;;;;;24.81;43.79;99330.28;10516802;28;20214;-67
2023/06/30 02:56:12;;;;;;;6.90;5.07;;;;;;;24.92;43.87;99321.66;10516593;28;20223;-67
2023/06/30 03:01:14;;;;;;;6.70;5.20;;;;;;;24.75;43.80;99307.66;10520408;28;20253;-66
2023/06/30 03:06:15;;;;;;;7.38;5.45;;;;;;;25.13;42.61;99328.81;10519561;28;20354;-67
2023/06/30 03:11:17;;;;;;;7.13;5.35;;;;;;;23.63;44.82;99330.19;10519464;28;20291;-67
2023/06/30 03:16:19;;;;;;;7.15;5.68;;;;;;;25.35;42.63;99289.94;10515224;28;20720;-67
2023/06/30 03:21:21;;;;;;;8.10;5.25;;;;;;;25.38;42.51;99314.78;10519318;28;20297;-67
2023/06/30 03:26:23;;;;;;;8.57;6.20;;;;;;;22.75;47.10;99345.25;10521365;28;20713;-67
2023/06/30 03:31:25;;;;;;;10.05;7.07;;;;;;;24.01;45.90;99332.38;10515956;28;20210;-67
2023/06/30 03:36:26;;;;;;;12.20;7.63;;;;;;;23.76;46.90;99278.75;10518003;28;20222;-66
2023/06/30 03:41:28;;;;;;;8.85;7.18;;;;;;;20.98;51.47;99276.44;10518618;28;20235;-66
2023/06/30 03:46:30;;;;;;;8.63;7.20;;;;;;;24.40;47.00;99243.22;10527809;28;20222;-67
2023/06/30 03:51:32;;;;;;;11.27;6.85;;;;;;;24.81;46.20;99287.31;10530025;28;20209;-66
2023/06/30 03:56:34;;;;;;;10.60;7.35;;;;;;;24.08;46.39;99308.25;10526783;28;20322;-66
2023/06/30 04:01:37;;;;;;;10.57;7.20;;;;;;;24.33;46.92;99307.22;10524845;28;20312;-66
2023/06/30 04:06:39;;;;;;;9.93;7.60;;;;;;;23.42;48.50;99313.06;10490244;28;20243;-66
2023/06/30 04:11:40;;;;;;;9.98;6.85;;;;;;;23.78;47.58;99298.38;10487529;28;20203;-66
2023/06/30 04:16:42;;;;;;;10.18;7.53;;;;;;;24.61;46.15;99290.25;10486463;28;20237;-65
2023/06/30 04:21:44;;;;;;;9.05;7.40;;;;;;;24.62;46.54;99303.66;10466667;28;20215;-68
2023/06/30 04:26:46;;;;;;;10.75;7.60;;;;;;;24.37;46.76;99311.00;10489114;28;20268;-69
2023/06/30 04:31:47;;;;;;;9.85;7.90;;;;;;;23.03;50.25;99334.81;10486587;28;20229;-69
2023/06/30 04:36:49;;;;;;;9.35;7.63;;;;;;;24.62;46.65;99300.09;10487648;28;20223;-68
2023/06/30 04:41:51;;;;;;;9.68;7.18;;;;;;;23.95;47.42;99322.56;10485658;28;20211;-68
2023/06/30 04:46:53;;;;;;;10.63;7.05;;;;;;;24.09;47.99;99311.78;10488688;28;20284;-68
2023/06/30 04:51:54;;;;;;;11.50;8.13;;;;;;;23.99;48.35;99301.78;10487552;28;20211;-68
2023/06/30 04:56:56;;;;;;;9.60;7.88;;;;;;;23.22;49.13;99340.47;10486127;28;20918;-68
2023/06/30 05:01:59;;;;;;;9.65;7.50;;;;;;;24.07;48.14;99297.59;10511461;28;20238;-68
2023/06/30 05:07:01;;;;;;;9.50;7.53;;;;;;;24.16;47.33;99302.19;10524418;28;20223;-68
2023/06/30 05:12:04;;;;;;;12.30;7.78;;;;;;;23.89;48.02;99316.34;10521410;28;20313;-68
2023/06/30 05:17:06;;;;;;;10.27;7.90;;;;;;;23.61;48.39;99301.53;10520099;28;20227;-66
2023/06/30 05:22:07;;;;;;;15.00;8.07;;;;;;;22.86;49.65;99316.06;10518763;28;20231;-66
2023/06/30 05:27:09;;;;;;;9.30;7.72;;;;;;;22.24;50.40;99342.59;10527667;28;20233;-66
2023/06/30 05:32:11;;;;;;;12.10;8.80;;;;;;;23.46;48.08;99307.84;10522006;28;20211;-66
2023/06/30 05:37:13;;;;;;;11.90;9.07;;;;;;;23.11;49.17;99312.41;10522745;28;20233;-66
2023/06/30 05:42:14;;;;;;;11.70;9.15;;;;;;;22.50;49.22;99362.44;10520801;28;20247;-66
2023/06/30 05:47:16;;;;;;;12.00;8.93;;;;;;;23.56;48.47;99301.53;10522622;28;20239;-67
2023/06/30 05:52:21;;;;;;;9.70;8.20;;;;;;;22.61;50.04;99336.03;10525050;28;20245;-66
2023/06/30 05:57:23;;;;;;;12.50;8.73;;;;;;;23.75;48.37;99332.56;10523592;28;20210;-66
2023/06/30 06:02:26;;;;;;;13.32;9.60;;;;;;;23.56;48.93;99315.19;10514903;28;20254;-66
2023/06/30 06:07:27;;;;;;;12.77;9.10;;;;;;;23.88;49.62;99320.16;10480696;28;20678;-66
2023/06/30 06:12:29;;;;;;;12.27;9.15;;;;;;;24.86;47.03;99365.78;10480652;28;20253;-66
2023/06/30 06:17:31;;;;;;;11.75;8.60;;;;;;;23.96;47.49;99423.38;10480736;28;20207;-66
2023/06/30 06:22:36;;;;;;;12.73;9.32;;;;;;;25.62;45.21;99371.44;10475619;28;20223;-66
2023/06/30 06:27:38;;;;;;;11.23;8.93;;;;;;;25.64;44.87;99407.56;10486104;28;20285;-66
2023/06/30 06:32:40;;;;;;;15.90;9.80;;;;;;;25.90;45.65;99416.28;10477508;28;20230;-66
2023/06/30 06:37:42;;;;;;;12.40;9.07;;;;;;;25.71;46.54;99429.09;10477762;28;20196;-67
2023/06/30 06:42:43;;;;;;;11.10;8.70;;;;;;;25.90;45.85;99435.44;10478820;28;20288;-65
2023/06/30 06:48:23;;;;;;;12.07;8.85;;;;;;;24.95;47.23;99469.94;10475152;28;20247;-67
2023/06/30 06:53:28;;;;;;;12.60;10.18;;;;;;;23.07;51.02;99417.75;10479910;28;20223;-67
2023/06/30 06:58:31;;;;;;;13.57;10.80;;;;;;;24.11;49.73;99380.66;10480929;28;20210;-68
2023/06/30 07:03:33;;;;;;;12.70;10.57;;;;;;;23.98;48.45;99451.22;10494478;28;20249;-67
2023/06/30 07:08:36;;;;;;;16.48;11.27;;;;;;;23.18;51.02;99440.38;10523950;28;21067;-67
2023/06/30 07:13:38;;;;;;;12.85;10.45;;;;;;;24.20;49.34;99389.09;10523136;28;20269;-67
2023/06/30 07:18:40;;;;;;;12.70;10.35;;;;;;;24.23;48.20;99435.81;10525360;28;20256;-67
2023/06/30 07:23:41;;;;;;;13.90;11.50;;;;;;;24.94;47.59;99400.72;10529455;28;20223;-65
2023/06/30 07:28:43;;;;;;;14.93;10.73;;;;;;;23.75;49.15;99458.22;10507959;28;20413;-66
2023/06/30 07:33:45;;;;;;;16.50;11.30;;;;;;;24.17;48.38;99439.66;10503804;28;20317;-66
2023/06/30 07:38:47;;;;;;;14.38;11.07;;;;;;;24.57;47.86;99421.31;10527785;28;20195;-66
2023/06/30 07:43:48;;;;;;;16.88;12.60;;;;;;;23.46;50.89;99411.59;10526107;28;20321;-66
2023/06/30 07:48:50;;;;;;;18.65;13.13;;;;;;;23.51;49.67;99463.47;10530673;28;20646;-66
2023/06/30 07:53:52;;;;;;;18.83;13.27;;;;;;;22.36;51.26;99487.56;10531743;28;20275;-66
2023/06/30 07:58:54;;;;;;;18.38;13.18;;;;;;;23.51;49.74;99436.16;10527189;28;20202;-66
2023/06/30 08:03:55;;;;;;;19.80;13.25;;;;;;;22.08;52.39;99443.41;10530493;28;20246;-66
2023/06/30 08:08:58;;;;;;;19.02;13.68;;;;;;;24.06;48.90;99416.22;10526718;28;20584;-66
2023/06/30 08:14:01;;;;;;;17.88;13.35;;;;;;;22.59;51.28;99474.53;10523585;28;20222;-67
2023/06/30 08:19:03;;;;;;;20.63;15.48;;;;;;;23.25;50.63;99438.19;10519101;28;20227;-67
2023/06/30 08:24:05;;;;;;;20.45;15.25;;;;;;;21.42;53.13;99480.19;10518391;28;20238;-67
2023/06/30 08:29:07;;;;;;;19.80;14.98;;;;;;;22.83;51.07;99480.25;10529058;28;20309;-66
2023/06/30 08:34:10;;;;;;;20.45;15.27;;;;;;;22.80;50.83;99450.78;10527737;28;20333;-65
2023/06/30 08:39:13;;;;;;;20.38;14.60;;;;;;;22.52;51.23;99467.44;10521234;28;20555;-66
2023/06/30 08:44:15;;;;;;;22.05;15.38;;;;;;;23.00;50.85;99433.59;10524714;28;20227;-66
2023/06/30 08:49:17;;;;;;;19.50;14.45;;;;;;;23.10;50.25;99433.59;10524143;28;20288;-65
2023/06/30 08:54:19;;;;;;;20.13;15.00;;;;;;;23.35;49.92;99448.25;10524699;28;20235;-65
2023/06/30 08:59:21;;;;;;;20.63;15.02;;;;;;;24.00;48.42;99450.97;10521833;28;20203;-66
2023/06/30 09:04:24;;;;;;;21.02;15.20;;;;;;;23.31;49.66;99467.06;10504418;28;20250;-66
2023/06/30 09:09:35;;;;;;;21.48;15.45;;;;;;;23.36;49.87;99447.94;10497584;22;20402;-35
2023/06/30 09:14:40;;;;;;;20.80;15.98;;;;;;;23.83;48.95;99450.53;10469466;28;20219;-35
2023/06/30 09:19:42;;;;;;;24.10;14.85;;;;;;;23.95;48.60;99442.78;10466272;28;20583;-35
2023/06/30 09:24:44;;;;;;;39.03;16.70;;;;;;;23.89;49.01;99442.00;10473288;28;20265;-35
2023/06/30 09:29:53;;;;;;;19.88;15.52;;;;;;;23.37;50.13;99425.03;10474871;28;20230;-35
2023/06/30 09:34:56;;;;;;;21.63;15.82;;;;;;;23.95;49.55;99443.59;10475911;28;20316;-35
2023/06/30 09:39:57;;;;;;;21.60;15.77;;;;;;;24.67;47.88;99407.53;10467503;28;20216;-35
2023/06/30 09:45:00;;;;;;;18.23;14.77;;;;;;;23.95;49.10;99440.88;10479702;28;20207;-35
2023/06/30 09:50:04;;;;;;;21.10;14.55;;;;;;;25.20;47.05;99408.63;10475779;28;20228;-35
2023/06/30 10:00:16;;;;;;;21.42;15.68;;;;;;;24.24;48.47;99434.72;10476679;28;20227;-35
2023/06/30 10:05:37;;;;;;;19.63;13.55;;;;;;;24.41;47.74;99439.78;10440239;28;20347;-35
2023/06/30 10:10:44;;;;;;;19.83;14.25;;;;;;;24.85;47.49;99414.22;10434822;28;20586;-40
2023/06/30 10:15:46;;;;;;;19.48;14.88;;;;;;;23.88;48.73;99454.03;10432134;28;20228;-39
2023/06/30 10:20:48;;;;;;;17.88;14.38;;;;;;;24.89;47.68;99420.75;10439152;28;20204;-39
2023/06/30 10:25:51;;;;;;;19.88;14.00;;;;;;;24.26;47.96;99450.81;10441267;28;20228;-37
2023/06/30 10:30:53;;;;;;;19.00;14.88;;;;;;;25.46;46.60;99426.41;10427398;28;20207;-36
2023/06/30 10:35:57;;;;;;;17.23;13.65;;;;;;;25.47;47.30;99403.41;10427994;28;20224;-37
2023/06/30 10:41:17;;;;;;;17.67;13.68;;;;;;;25.20;47.94;99403.16;10421051;28;20278;-36
2023/06/30 10:46:19;;;;;;;20.13;14.68;;;;;;;24.71;48.04;99402.31;10414496;28;20318;-40
2023/06/30 10:51:21;;;;;;;18.38;13.77;;;;;;;24.49;48.84;99411.78;10436489;28;20617;-37
2023/06/30 10:56:23;;;;;;;19.65;15.90;;;;;;;24.60;47.16;99411.72;10440470;28;20766;-42
2023/06/30 11:06:23;;;;;;;18.73;14.48;;;;;;;22.34;52.53;99343.38;10433661;28;21418;-68
2023/06/30 11:11:27;;;;;;;17.83;13.80;;;;;;;22.18;53.65;99352.66;10427266;28;20256;-69
2023/06/30 11:16:29;;;;;;;17.35;13.73;;;;;;;22.14;53.67;99344.22;10425643;28;20228;-68
2023/06/30 11:21:32;;;;;;;19.63;14.23;;;;;;;21.90;53.93;99351.28;10424563;28;20234;-69
2023/06/30 11:26:36;;;;;;;17.30;13.13;;;;;;;23.00;52.33;99327.19;10423757;28;20303;-69
2023/06/30 11:31:37;;;;;;;18.08;13.35;;;;;;;23.01;50.93;99400.56;10426313;28;20814;-69
2023/06/30 11:36:39;;;;;;;13.45;10.90;;;;;;;20.86;54.65;99390.06;10426165;28;20242;-71
2023/06/30 11:41:43;;;;;;;15.10;10.65;;;;;;;19.97;56.95;99405.84;10417580;28;20595;-75
2023/06/30 11:46:45;;;;;;;17.73;12.98;;;;;;;19.59;58.31;99399.50;10431337;28;20235;-73
2023/06/30 11:51:47;;;;;;;16.35;12.23;;;;;;;20.38;59.22;99359.25;10418241;28;20223;-70
2023/06/30 11:56:49;;;;;;;20.60;12.65;;;;;;;19.45;61.40;99396.31;10418530;28;20267;-70
2023/06/30 12:01:51;;;;;;;16.73;11.35;;;;;;;20.97;57.94;99336.53;10424041;28;20282;-70
2023/06/30 12:06:55;;;;;;;14.18;11.13;;;;;;;20.71;58.53;99369.00;10419004;28;20215;-70
2023/06/30 12:11:58;;;;;;;14.18;10.35;;;;;;;18.69;61.16;99451.06;10423060;28;20823;-70
2023/06/30 12:17:03;;;;;;;14.48;10.68;;;;;;;18.77;62.83;99452.56;10395433;28;20953;-69
2023/06/30 12:22:07;;;;;;;12.88;10.70;;;;;;;18.58;63.75;99403.22;10393600;28;20233;-70
2023/06/30 12:27:09;;;;;;;17.08;11.73;;;;;;;19.07;62.36;99405.31;10400329;28;20654;-69
2023/06/30 12:32:14;;;;;;;15.07;10.15;;;;;;;19.37;60.83;99423.91;10390027;28;20692;-70
2023/06/30 12:37:17;;;;;;;15.80;10.20;;;;;;;20.65;59.08;99402.69;10390001;28;20208;-70
2023/06/30 12:42:19;;;;;;;12.65;9.98;;;;;;;20.21;58.80;99503.34;10393085;28;20739;-70
2023/06/30 12:47:21;;;;;;;16.08;10.32;;;;;;;20.26;59.59;99425.47;10393448;28;20213;-70
2023/06/30 12:52:23;;;;;;;15.52;10.80;;;;;;;20.08;59.14;99429.31;10392880;28;20228;-70
2023/06/30 12:57:25;;;;;;;14.52;11.02;;;;;;;21.68;57.24;99433.16;10394298;28;20263;-70
2023/06/30 13:02:26;;;;;;;13.45;10.70;;;;;;;21.13;56.92;99478.88;10395593;28;20240;-70
2023/06/30 13:07:29;;;;;;;12.77;10.15;;;;;;;20.53;57.13;99506.13;10395551;28;20213;-70
2023/06/30 13:12:31;;;;;;;12.25;10.00;;;;;;;22.67;53.95;99444.81;10395918;28;20220;-70
2023/06/30 13:17:32;;;;;;;14.25;10.35;;;;;;;21.52;56.69;99489.47;10395926;28;20209;-70
2023/06/30 13:22:35;;;;;;;13.52;10.50;;;;;;;21.85;54.65;99474.63;10392011;28;20691;-70
2023/06/30 13:27:46;;;;;;;13.57;10.10;;;;;;;22.64;54.49;99455.44;10393370;28;20213;-70
2023/06/30 13:32:48;;;;;;;13.43;9.82;;;;;;;22.63;53.41;99453.81;10396506;28;20256;-70
2023/06/30 13:37:50;;;;;;;13.32;9.88;;;;;;;21.69;54.24;99467.47;10392786;28;20632;-70
2023/06/30 13:42:52;;;;;;;13.40;10.25;;;;;;;20.20;56.13;99515.31;10394209;28;20323;-70
2023/06/30 13:47:54;;;;;;;15.27;10.80;;;;;;;22.07;54.08;99460.00;10393686;28;20214;-70
2023/06/30 13:52:55;;;;;;;11.43;9.57;;;;;;;22.22;53.96;99451.03;10393329;28;20212;-70
2023/06/30 13:57:57;;;;;;;12.65;10.02;;;;;;;21.76;54.03;99463.44;10392578;28;20300;-70
2023/06/30 14:02:59;;;;;;;12.80;9.15;;;;;;;22.24;52.89;99485.09;10394586;28;20294;-70
2023/06/30 14:08:01;;;;;;;11.38;9.02;;;;;;;22.37;53.19;99467.41;10393909;28;20210;-70
2023/06/30 14:13:02;;;;;;;12.95;9.32;;;;;;;20.89;56.01;99453.97;10390120;28;20683;-70
2023/06/30 14:18:04;;;;;;;12.30;8.75;;;;;;;21.02;55.22;99464.38;10394292;28;20311;-70
2023/06/30 14:23:06;;;;;;;13.70;9.45;;;;;;;21.08;55.61;99413.56;10390629;28;20220;-70
2023/06/30 14:28:08;;;;;;;14.65;10.02;;;;;;;21.55;53.79;99475.31;10386184;28;20263;-70
2023/06/30 14:33:10;;;;;;;14.50;9.95;;;;;;;21.70;54.40;99404.59;10390729;28;20214;-70
2023/06/30 14:38:12;;;;;;;15.85;10.65;;;;;;;21.41;54.14;99434.97;10392192;28;20909;-70
2023/06/30 14:43:14;;;;;;;15.63;11.50;;;;;;;21.30;55.45;99410.69;10383931;28;20311;-70
2023/06/30 14:48:16;;;;;;;15.15;11.48;;;;;;;20.49;56.11;99448.75;10389565;28;20694;-70
2023/06/30 14:53:18;;;;;;;15.93;11.13;;;;;;;20.87;55.84;99435.22;10383954;28;20729;-70
2023/06/30 14:58:20;;;;;;;17.15;12.02;;;;;;;21.03;56.37;99395.31;10390434;28;20244;-70
2023/06/30 15:03:22;;;;;;;17.33;12.15;;;;;;;21.50;55.03;99404.53;10389648;28;20316;-70
2023/06/30 15:08:24;;;;;;;16.15;12.10;;;;;;;20.80;56.74;99412.84;10402159;22;20233;-32
2023/06/30 15:13:26;;;;;;;17.05;12.57;;;;;;;21.39;54.88;99403.66;10401915;28;20279;-33
2023/06/30 15:18:28;;;;;;;18.55;12.85;;;;;;;21.28;55.35;99386.47;10360993;28;20237;-33
2023/06/30 15:23:29;;;;;;;17.20;11.77;;;;;;;22.46;52.63;99400.34;10366688;28;20229;-33
2023/06/30 15:28:31;;;;;;;15.63;11.48;;;;;;;21.02;54.66;99469.81;10347908;28;20214;-33
2023/06/30 15:33:33;;;;;;;15.57;12.02;;;;;;;21.15;54.73;99411.41;10350982;28;20240;-33
2023/06/30 15:38:35;;;;;;;18.42;12.75;;;;;;;20.67;55.16;99446.72;10351871;28;20677;-33
2023/06/30 15:43:36;;;;;;;15.43;12.50;;;;;;;21.22;53.61;99422.88;10362583;28;20701;-33
2023/06/30 15:48:38;;;;;;;17.30;12.50;;;;;;;21.45;53.24;99426.28;10358976;28;20204;-33
2023/06/30 15:53:40;;;;;;;17.15;12.15;;;;;;;21.30;53.22;99422.38;10362339;28;21225;-33
2023/06/30 15:58:42;;;;;;;13.55;11.07;;;;;;;21.83;52.21;99427.78;10356876;28;20240;-33
2023/06/30 16:03:44;;;;;;;15.43;12.18;;;;;;;21.59;52.40;99441.03;10361553;28;20280;-33
2023/06/30 16:08:47;;;;;;;14.25;11.70;;;;;;;22.03;52.05;99402.53;10362367;28;20249;-32
2023/06/30 16:13:48;;;;;;;13.98;11.23;;;;;;;20.89;54.06;99426.78;10362044;28;20226;-33
2023/06/30 16:18:50;;;;;;;16.13;11.88;;;;;;;21.79;53.25;99402.16;10364176;28;20214;-32
2023/06/30 16:23:53;;;;;;;15.57;11.75;;;;;;;20.84;55.64;99378.63;10360089;28;20234;-32
2023/06/30 16:28:55;;;;;;;14.88;11.32;;;;;;;21.27;54.25;99379.38;10357494;28;20214;-33
2023/06/30 16:33:56;;;;;;;14.70;10.65;;;;;;;22.10;52.19;99362.22;10364224;28;20229;-33
2023/06/30 16:38:58;;;;;;;18.70;11.88;;;;;;;21.77;51.85;99396.16;10362263;28;20208;-33
2023/06/30 16:44:00;;;;;;;16.42;12.60;;;;;;;21.94;51.36;99376.91;10364459;28;20260;-32
2023/06/30 16:49:02;;;;;;;15.15;11.90;;;;;;;20.98;53.06;99427.91;10362888;28;20218;-33
2023/06/30 16:54:05;;;;;;;17.52;12.55;;;;;;;20.99;53.24;99400.47;10359990;28;20225;-32
2023/06/30 16:59:06;;;;;;;16.35;12.43;;;;;;;22.03;51.39;99388.06;10359624;28;20220;-33
2023/06/30 17:04:08;;;;;;;15.65;11.98;;;;;;;22.71;50.08;99379.63;10354794;28;20303;-33
2023/06/30 17:09:10;;;;;;;15.75;12.05;;;;;;;22.98;50.60;99381.22;10362369;28;20348;-33
2023/06/30 17:14:12;;;;;;;15.18;11.43;;;;;;;23.84;48.12;99376.47;10363401;28;20268;-33
2023/06/30 17:19:13;;;;;;;17.98;13.30;;;;;;;22.60;49.95;99405.28;10357140;28;20205;-33
2023/06/30 17:24:15;;;;;;;14.75;11.73;;;;;;;23.05;50.18;99379.00;10356300;28;20279;-33
2023/06/30 17:29:17;;;;;;;14.30;10.80;;;;;;;23.02;49.77;99396.72;10360655;28;20224;-33
2023/06/30 17:34:19;;;;;;;12.90;10.68;;;;;;;22.63;50.72;99391.91;10357040;28;20856;-33
2023/06/30 17:39:21;;;;;;;14.35;10.85;;;;;;;23.23;50.13;99362.03;10351183;28;20217;-33
2023/06/30 17:44:23;;;;;;;15.20;11.40;;;;;;;23.72;49.26;99374.09;10357818;28;20933;-33
2023/06/30 17:49:29;;;;;;;13.45;10.35;;;;;;;22.84;51.27;99378.22;10356844;28;20263;-33
2023/06/30 17:54:31;;;;;;;16.10;11.82;;;;;;;22.17;53.37;99381.00;10349866;28;20273;-33
2023/06/30 17:59:32;;;;;;;16.75;12.05;;;;;;;22.50;52.91;99360.59;10363559;28;20213;-33
2023/06/30 18:04:34;;;;;;;17.08;12.48;;;;;;;22.47;52.36;99372.00;10355714;28;20236;-33
2023/06/30 18:09:38;;;;;;;17.27;12.43;;;;;;;23.32;51.27;99350.53;10356821;28;20814;-33
2023/06/30 18:14:42;;;;;;;15.30;12.45;;;;;;;23.30;50.76;99358.16;10356955;28;20234;-33
2023/06/30 18:19:43;;;;;;;16.95;12.10;;;;;;;23.71;50.41;99358.81;10358999;28;20214;-33
2023/06/30 18:24:45;;;;;;;15.10;11.40;;;;;;;22.82;51.40;99400.31;10359627;28;20241;-33
2023/06/30 18:29:47;;;;;;;15.55;11.27;;;;;;;23.39;50.44;99361.97;10355797;28;20622;-33
2023/06/30 18:34:49;;;;;;;16.52;11.32;;;;;;;23.07;50.56;99399.47;10359437;28;20236;-33
2023/06/30 18:39:51;;;;;;;14.40;11.13;;;;;;;23.03;50.24;99408.47;10360653;28;20202;-33
2023/06/30 18:44:52;;;;;;;14.95;11.30;;;;;;;23.79;49.64;99395.63;10360985;28;20666;-33
2023/06/30 18:49:54;;;;;;;13.95;11.00;;;;;;;23.30;50.18;99404.56;10362136;28;20225;-33
2023/06/30 18:54:57;;;;;;;13.85;10.82;;;;;;;23.25;50.07;99378.13;10357453;28;20226;-33
2023/06/30 19:00:00;;;;;;;16.92;10.45;;;;;;;23.10;50.59;99392.66;10356076;28;20224;-33
2023/06/30 19:05:02;;;;;;;12.18;9.55;;;;;;;23.32;49.72;99400.47;10353479;28;20291;-33
2023/06/30 19:10:05;;;;;;;12.27;9.45;;;;;;;23.79;48.80;99390.97;10359554;28;20778;-33
2023/06/30 19:15:07;;;;;;;12.70;9.18;;;;;;;22.70;50.91;99421.63;10357636;28;20221;-33
2023/06/30 19:20:09;;;;;;;14.70;10.07;;;;;;;22.64;50.38;99409.91;10354071;28;20210;-33
2023/06/30 19:25:11;;;;;;;12.80;8.85;;;;;;;22.48;50.91;99421.88;10359178;28;20234;-33
2023/06/30 19:30:13;;;;;;;11.80;8.77;;;;;;;22.49;50.82;99416.16;10360954;28;20220;-33
2023/06/30 19:35:15;;;;;;;10.98;7.60;;;;;;;22.02;51.73;99438.22;10365484;28;20594;-33
2023/06/30 19:40:17;;;;;;;9.43;7.10;;;;;;;21.68;52.06;99417.66;10366419;28;20284;-33
2023/06/30 19:45:19;;;;;;;7.22;5.22;;;;;;;21.75;51.30;99410.06;10364001;28;20233;-33
2023/06/30 19:50:24;;;;;;;6.97;4.82;;;;;;;22.43;49.63;99405.53;10365603;28;20201;-33
2023/06/30 19:55:25;;;;;;;8.18;5.13;;;;;;;22.08;49.90;99443.41;10363737;28;20279;-33
2023/06/30 20:00:29;;;;;;;9.07;4.32;;;;;;;22.87;48.59;99433.03;10363827;28;20213;-33
2023/06/30 20:05:31;;;;;;;5.18;4.00;;;;;;;22.74;48.54;99439.09;10363892;28;20688;-33
2023/06/30 20:10:34;;;;;;;5.65;4.07;;;;;;;22.27;48.93;99489.19;10365498;28;20237;-33
2023/06/30 20:15:35;;;;;;;5.95;3.85;;;;;;;22.65;47.91;99495.25;10357588;28;20217;-33
2023/06/30 20:20:37;;;;;;;4.85;3.90;;;;;;;23.76;46.13;99437.16;10359366;28;20214;-33
2023/06/30 20:25:39;;;;;;;6.38;4.30;;;;;;;23.09;46.95;99483.78;10360661;28;20241;-33
2023/06/30 20:30:41;;;;;;;5.32;3.75;;;;;;;22.94;46.67;99489.22;10354394;28;20209;-33
2023/06/30 20:35:43;;;;;;;6.43;3.58;;;;;;;22.22;47.24;99509.09;10355182;28;20243;-33
2023/06/30 20:40:45;;;;;;;4.28;3.17;;;;;;;22.24;47.81;99452.41;10362162;28;20264;-33
2023/06/30 20:45:47;;;;;;;3.75;2.88;;;;;;;21.85;48.38;99484.72;10367809;28;20233;-33
2023/06/30 20:50:49;;;;;;;3.67;2.65;;;;;;;22.27;47.75;99457.31;10363316;28;20214;-33
2023/06/30 20:55:51;;;;;;;3.35;2.42;;;;;;;22.59;47.42;99415.38;10358198;28;20603;-33
2023/06/30 21:00:53;;;;;;;2.53;2.33;;;;;;;22.39;46.81;99469.88;10361453;28;20267;-33
2023/06/30 21:05:54;;;;;;;3.75;2.70;;;;;;;22.68;46.44;99457.34;10364154;28;20241;-33
2023/06/30 21:10:56;;;;;;;4.32;2.17;;;;;;;22.13;48.06;99424.34;10359563;28;20232;-33
2023/06/30 21:15:58;;;;;;;2.55;2.33;;;;;;;23.21;46.14;99424.28;10358832;28;20221;-33
2023/06/30 21:21:00;;;;;;;2.42;1.77;;;;;;;22.80;46.88;99404.44;10356698;28;20593;-33
2023/06/30 21:26:01;;;;;;;4.43;1.90;;;;;;;22.06;47.24;99450.19;10358772;28;20279;-40
2023/06/30 21:31:03;;;;;;;4.10;1.92;;;;;;;22.22;47.98;99399.25;10361616;28;20210;-38
2023/06/30 21:36:05;;;;;;;4.75;2.67;;;;;;;22.41;47.12;99415.91;10351811;28;20253;-38
2023/06/30 21:41:08;;;;;;;2.92;2.30;;;;;;;22.45;47.30;99416.97;10359328;28;20654;-37
2023/06/30 21:46:14;;;;;;;3.33;2.20;;;;;;;23.06;46.27;99425.13;10357288;28;20300;-36
2023/06/30 21:51:16;;;;;;;4.50;2.47;;;;;;;22.56;46.84;99435.00;10364590;28;20213;-41
2023/06/30 21:56:18;;;;;;;3.35;2.10;;;;;;;23.07;46.35;99390.47;10369967;28;20245;-37
2023/06/30 22:01:19;;;;;;;2.22;2.03;;;;;;;23.06;45.31;99435.22;10361406;28;20854;-39
2023/06/30 22:06:29;;;;;;;2.88;2.08;;;;;;;22.57;45.52;99490.34;10356549;28;20229;-40
2023/06/30 22:11:31;;;;;;;3.10;1.80;;;;;;;22.34;46.65;99476.94;10358988;28;20719;-37
2023/06/30 22:16:32;;;;;;;2.75;1.90;;;;;;;21.24;48.42;99428.91;10351124;28;20358;-38
2023/06/30 22:21:34;;;;;;;3.10;2.10;;;;;;;22.13;46.97;99378.00;10357258;28;20860;-38
2023/06/30 22:26:36;;;;;;;3.03;2.38;;;;;;;21.04;48.18;99446.72;10360903;28;20247;-36
2023/06/30 22:31:38;;;;;;;3.80;2.25;;;;;;;22.45;46.81;99406.06;10354478;28;20267;-39
2023/06/30 22:36:40;;;;;;;3.78;2.45;;;;;;;21.15;49.12;99425.84;10357894;28;20320;-36
2023/06/30 22:41:41;;;;;;;3.55;2.13;;;;;;;20.37;51.91;99377.44;10357673;28;20217;-37
2023/06/30 22:46:43;;;;;;;3.10;2.80;;;;;;;21.85;49.28;99354.00;10362424;28;20613;-36
2023/06/30 22:51:45;;;;;;;3.58;2.90;;;;;;;20.68;51.05;99367.63;10357733;28;20217;-37
2023/06/30 22:56:47;;;;;;;4.82;2.90;;;;;;;21.02;50.29;99405.38;10362191;28;20236;-36
2023/06/30 23:01:48;;;;;;;3.33;2.83;;;;;;;20.63;50.90;99423.84;10360509;28;20257;-36
2023/06/30 23:06:50;;;;;;;3.45;3.10;;;;;;;19.91;52.48;99402.28;10356948;28;20711;-37
2023/06/30 23:11:52;;;;;;;3.90;2.90;;;;;;;19.46;53.78;99399.84;10359662;28;20299;-38
2023/06/30 23:16:54;;;;;;;6.28;3.33;;;;;;;19.82;52.76;99387.50;10356403;28;20301;-36
2023/06/30 23:22:05;;;;;;;5.30;3.08;;;;;;;20.16;52.56;99348.44;10354241;28;20205;-37